Shoshone, California Weather observations

Data are for observation ending at time listed.
 Day   Time    Ave.   Ave.  Ave.  Vector   Max.   Stn.    Total    Solar   Ave.  
  of    of     Air    Rel.  Wind   Wind    Wind   Baro.  Precip.   Rad.    Soil  
Year   Day     Temp.  Hum.  Speed  Dir.    Gust   Pres.                    Temp. 
2016   (PST)    F      %     mph   deg.    mph     mb.     in.     W/m2     F   
------------------------------------------------------------------------------
 210   12:00  111.1    10    4.6   163     15.3    962     0.00     964    99999.0
 210   13:00  114.2    10    3.5   164     12.9    962     0.00     959    99999.0
 210   14:00  115.6    10    3.6   186     12.1    961     0.00     900    99999.0
 210   15:00  116.5     9    3.9   212     11.2    960     0.00     778    99999.0
 210   16:00  116.7     9    3.3   103      9.3    959     0.00     606    99999.0
 210   17:00  116.4     9    3.0   158     10.7    959     0.00     408    99999.0
 210   18:00  115.0    10    2.3   200      7.5    958     0.00     196    99999.0
 210   19:00  109.4    12    0.8   179      6.4    959     0.00      19    99999.0
 210   20:00  107.9    11    1.0   144     10.6    959     0.00       0    99999.0
 210   21:00  106.1    11    2.2   291      8.1    960     0.00       0    99999.0
 210   22:00  105.6    12    3.7    34     15.9    961     0.00       0    99999.0
 210   23:00  102.9    14    2.5    78      8.3    961     0.00       0    99999.0
 211    0:00   99.5    15    1.2   150      8.3    961     0.00       0    99999.0
 211    1:00  100.6    15    1.7   166     12.8    961     0.00       0    99999.0
 211    2:00   99.4    14    2.5   160     10.7    961     0.00       0    99999.0
 211    3:00   95.4    15    1.9    32      6.6    961     0.00       0    99999.0
 211    4:00   90.4    19    2.0    38      5.1    961     0.00       0    99999.0
 211    5:00   87.7    22    0.8   357      2.9    961     0.00       1    99999.0
 211    6:00   87.6    24    0.8    69      3.8    962     0.00      30    99999.0
 211    7:00   89.6    25    0.6    62      2.8    962     0.00     148    99999.0
 211    8:00   97.4    18    1.2   115      8.7    963     0.00     421    99999.0
 211    9:00  101.3    13    3.3   162      8.6    963     0.00     641    99999.0
 211   10:00  107.1    11    2.3   130     10.2    962     0.00     799    99999.0
 211   11:00  109.4    11    3.2   161      9.8    962     0.00     910    99999.0

Return to Shoshone, California graphs page.


Western Regional Climate Center,wrcc@dri.edu